Time;durP1;ratioP1;P1;durP2;ratioP2;P2;SDS_P1;SDS_P2;PMS_P1;PMS_P2;Temp;Humidity;BMP_temperature;BMP_pressure;BME280_temperature;BME280_humidity;BME280_pressure;Samples;Min_cycle;Max_cycle;Signal;HPM_P1;HPM_P2
2023/05/09 00:00:30;;;;;;;3.60;2.45;;;;;;;14.27;59.06;94144.22;4920088;28;20046;-72
2023/05/09 00:02:56;;;;;;;2.55;2.35;;;;;;;14.30;58.35;94135.50;4929332;28;20038;-73
2023/05/09 00:05:21;;;;;;;4.13;2.35;;;;;;;14.19;59.20;94140.47;4931736;28;20496;-73
2023/05/09 00:07:47;;;;;;;3.10;2.70;;;;;;;14.24;58.87;94139.50;4929754;28;20039;-73
2023/05/09 00:10:13;;;;;;;2.50;1.88;;;;;;;14.30;58.37;94142.75;4917285;28;20392;-74
2023/05/09 00:12:38;;;;;;;2.92;2.65;;;;;;;14.23;58.37;94140.59;4924450;28;20048;-73
2023/05/09 00:15:07;;;;;;;5.68;2.78;;;;;;;14.21;58.35;94129.47;4910610;28;20101;-73
2023/05/09 00:17:33;;;;;;;2.20;2.00;;;;;;;14.10;58.38;94098.88;4910067;29;20630;-72
2023/05/09 00:20:00;;;;;;;3.72;2.05;;;;;;;14.31;58.88;94139.75;4912566;29;20589;-72
2023/05/09 00:22:26;;;;;;;2.35;2.15;;;;;;;14.27;59.36;94130.84;4909993;28;20032;-73
2023/05/09 00:24:52;;;;;;;2.92;2.35;;;;;;;14.31;59.25;94147.78;4910323;28;20047;-73
2023/05/09 00:27:17;;;;;;;3.08;2.28;;;;;;;13.96;59.90;94099.13;4917740;28;20031;-73
2023/05/09 00:29:43;;;;;;;3.22;2.90;;;;;;;14.14;59.41;94116.59;4927601;28;20039;-73
2023/05/09 00:32:09;;;;;;;3.67;2.80;;;;;;;14.26;58.98;94136.50;4911187;29;20581;-74
2023/05/09 00:34:35;;;;;;;6.38;3.28;;;;;;;13.71;60.10;94132.97;4911252;28;20040;-73
2023/05/09 00:37:00;;;;;;;3.83;3.20;;;;;;;13.66;59.23;94138.50;4909328;28;20043;-73
2023/05/09 00:39:26;;;;;;;3.70;3.08;;;;;;;13.96;59.92;94135.78;4924272;28;20092;-74
2023/05/09 00:41:51;;;;;;;3.92;3.55;;;;;;;13.91;59.25;94139.44;4925206;28;20590;-73
2023/05/09 00:44:17;;;;;;;4.07;3.65;;;;;;;14.00;59.14;94134.03;4911359;29;20063;-74
2023/05/09 00:46:43;;;;;;;3.30;2.92;;;;;;;14.08;60.18;94133.94;4928678;28;20402;-73
2023/05/09 00:49:09;;;;;;;3.60;3.30;;;;;;;14.04;59.84;94116.22;4914672;28;20035;-73
2023/05/09 00:51:35;;;;;;;5.25;3.58;;;;;;;14.11;59.64;94124.50;4912103;28;20064;-75
2023/05/09 00:54:01;;;;;;;4.10;3.70;;;;;;;13.97;59.50;94102.59;4910317;28;20427;-74
2023/05/09 00:56:26;;;;;;;9.02;3.30;;;;;;;14.16;60.03;94135.00;4910623;28;20063;-73
2023/05/09 00:58:52;;;;;;;3.88;2.80;;;;;;;14.21;59.51;94136.69;4909119;28;20024;-72
2023/05/09 01:01:17;;;;;;;3.65;3.33;;;;;;;14.25;59.40;94142.94;4926602;28;20521;-73
2023/05/09 01:03:44;;;;;;;4.05;3.40;;;;;;;14.14;59.73;94126.50;4923963;28;20036;-75
2023/05/09 01:06:26;;;;;;;3.38;3.08;;;;;;;14.29;59.41;94144.66;4905481;29;20047;-74
2023/05/09 01:09:28;;;;;;;4.78;2.97;;;;;;;14.25;59.62;94137.59;4911380;28;20047;-73
2023/05/09 01:12:19;;;;;;;4.65;3.47;;;;;;;14.31;59.89;94137.09;4908782;28;20103;-73
2023/05/09 01:15:22;;;;;;;3.38;2.88;;;;;;;14.32;59.18;94133.31;4910272;28;20023;-72
2023/05/09 01:17:50;;;;;;;3.50;3.15;;;;;;;14.22;58.22;94117.66;4910417;28;20066;-73
2023/05/09 01:20:34;;;;;;;4.47;3.92;;;;;;;14.34;58.24;94131.06;4910468;28;20429;-75
2023/05/09 01:23:35;;;;;;;4.30;3.33;;;;;;;14.32;58.55;94127.16;4932128;28;20087;-73
2023/05/09 01:26:09;;;;;;;3.45;3.15;;;;;;;14.34;58.03;94125.72;4930058;28;20143;-74
2023/05/09 01:28:40;;;;;;;3.40;3.10;;;;;;;14.34;58.02;94133.75;4927765;28;20031;-73
2023/05/09 01:31:07;;;;;;;5.47;3.35;;;;;;;14.18;58.09;94117.50;4925301;28;21014;-74
2023/05/09 01:33:37;;;;;;;3.85;3.55;;;;;;;14.27;57.59;94125.47;4928370;28;20126;-74
2023/05/09 01:36:08;;;;;;;4.38;3.10;;;;;;;14.22;57.25;94106.94;4932090;28;20544;-75
2023/05/09 01:38:37;;;;;;;3.40;2.92;;;;;;;14.07;58.04;94119.03;4927912;28;20117;-73
2023/05/09 01:41:04;;;;;;;6.68;3.00;;;;;;;14.14;57.80;94137.22;4929879;28;20055;-75
2023/05/09 01:43:32;;;;;;;5.20;3.83;;;;;;;14.18;58.04;94128.22;4937807;28;20074;-73
2023/05/09 01:45:58;;;;;;;5.43;3.97;;;;;;;14.18;57.88;94133.56;4929750;28;20087;-73
2023/05/09 01:48:26;;;;;;;4.70;3.58;;;;;;;14.02;58.39;94116.56;4926672;28;20044;-73
2023/05/09 01:50:53;;;;;;;3.70;3.40;;;;;;;14.17;58.30;94131.22;4921871;28;20452;-75
2023/05/09 01:53:22;;;;;;;4.57;3.60;;;;;;;14.14;58.09;94126.50;4910990;29;20494;-74
2023/05/09 01:55:50;;;;;;;3.63;3.15;;;;;;;14.15;58.44;94122.72;4908627;28;20597;-75
2023/05/09 01:58:17;;;;;;;4.80;3.70;;;;;;;14.12;57.86;94118.06;4907493;28;20570;-74
2023/05/09 02:00:43;;;;;;;5.13;3.88;;;;;;;14.22;57.83;94132.91;4909559;28;20350;-74
2023/05/09 02:03:08;;;;;;;3.30;3.00;;;;;;;14.13;58.14;94127.66;4907940;29;20428;-74
2023/05/09 02:05:36;;;;;;;4.75;3.70;;;;;;;13.94;58.13;94084.50;4906368;29;20066;-74
2023/05/09 02:08:01;;;;;;;6.35;3.88;;;;;;;14.27;57.86;94135.41;4911773;29;20027;-74
2023/05/09 02:10:27;;;;;;;6.55;4.00;;;;;;;14.24;58.26;94136.03;4927048;28;20047;-75
2023/05/09 02:12:53;;;;;;;3.67;3.38;;;;;;;14.15;57.96;94117.38;4907953;28;20456;-74
2023/05/09 02:15:20;;;;;;;3.50;3.20;;;;;;;14.20;57.82;94135.91;4909572;28;20048;-73
2023/05/09 02:17:45;;;;;;;4.85;4.35;;;;;;;13.79;57.95;94090.47;4909286;28;20341;-74
2023/05/09 02:20:12;;;;;;;4.70;3.72;;;;;;;13.18;59.90;94130.09;4908724;29;20077;-75
2023/05/09 02:22:39;;;;;;;3.83;3.05;;;;;;;13.67;59.15;94113.34;4908254;28;20042;-74
2023/05/09 02:25:06;;;;;;;4.90;4.25;;;;;;;13.48;59.58;94123.66;4910070;28;20061;-74
2023/05/09 02:27:33;;;;;;;4.13;3.72;;;;;;;13.64;60.11;94131.94;4909753;29;20083;-73
2023/05/09 02:30:06;;;;;;;4.35;3.70;;;;;;;13.80;59.51;94129.44;4907457;28;20039;-74
2023/05/09 02:32:34;;;;;;;3.78;3.47;;;;;;;13.78;59.04;94103.06;4907461;28;20028;-74
2023/05/09 02:35:01;;;;;;;7.38;4.10;;;;;;;13.88;59.14;94125.94;4926926;28;20130;-73
2023/05/09 02:37:27;;;;;;;3.88;3.50;;;;;;;13.82;59.13;94113.88;4906962;28;20175;-75
2023/05/09 02:39:53;;;;;;;4.85;3.65;;;;;;;13.84;59.20;94117.03;4910472;28;20060;-75
2023/05/09 02:42:27;;;;;;;5.55;3.42;;;;;;;13.90;59.24;94115.69;4907073;28;20083;-73
2023/05/09 02:44:53;;;;;;;4.05;3.65;;;;;;;13.84;59.30;94114.34;4910397;28;20091;-74
2023/05/09 02:47:19;;;;;;;4.53;3.42;;;;;;;13.79;59.62;94103.84;4909451;29;20028;-74
2023/05/09 02:49:45;;;;;;;4.53;3.45;;;;;;;13.78;59.33;94113.75;4924611;28;20722;-73
2023/05/09 02:52:11;;;;;;;4.47;3.53;;;;;;;13.84;59.51;94119.69;4927907;28;20043;-73
2023/05/09 02:54:37;;;;;;;4.72;3.40;;;;;;;13.87;59.74;94127.06;4918023;28;20055;-74
2023/05/09 02:57:03;;;;;;;4.95;3.42;;;;;;;13.91;59.49;94130.63;4908520;28;20072;-75
2023/05/09 02:59:28;;;;;;;3.65;3.35;;;;;;;13.84;59.77;94122.38;4910361;28;20469;-74
2023/05/09 03:01:54;;;;;;;3.88;3.47;;;;;;;13.78;59.88;94119.09;4907762;29;20016;-73
2023/05/09 03:04:19;;;;;;;3.92;3.47;;;;;;;13.72;59.76;94110.50;4909171;28;20186;-73
2023/05/09 03:06:44;;;;;;;3.97;3.58;;;;;;;13.72;59.79;94118.50;4908201;28;20317;-74
2023/05/09 03:09:10;;;;;;;5.40;3.58;;;;;;;13.88;60.10;94136.66;4909068;28;20554;-74
2023/05/09 03:11:35;;;;;;;3.60;3.30;;;;;;;13.85;60.05;94129.25;4907472;28;20159;-75
2023/05/09 03:14:02;;;;;;;5.07;3.30;;;;;;;13.84;59.89;94120.44;4907572;29;20535;-73
2023/05/09 03:16:27;;;;;;;4.82;3.88;;;;;;;13.96;59.94;94141.13;4908975;28;20031;-76
2023/05/09 03:18:53;;;;;;;6.53;4.63;;;;;;;13.95;59.95;94136.88;4908628;28;20380;-75
2023/05/09 03:21:18;;;;;;;5.15;4.45;;;;;;;13.93;60.47;94147.16;4907204;28;20071;-73
2023/05/09 03:23:44;;;;;;;4.13;3.65;;;;;;;13.89;60.39;94148.88;4910158;28;20034;-73
2023/05/09 03:26:09;;;;;;;4.82;4.18;;;;;;;13.89;60.41;94157.69;4910918;29;20231;-74
2023/05/09 03:28:37;;;;;;;4.55;4.15;;;;;;;13.87;60.19;94161.81;4907533;29;20055;-73
2023/05/09 03:31:03;;;;;;;5.88;4.38;;;;;;;13.22;61.99;94139.03;4903430;28;20130;-75
2023/05/09 03:33:29;;;;;;;6.95;4.57;;;;;;;12.73;64.90;94159.13;4907365;28;20040;-75
2023/05/09 03:35:54;;;;;;;9.85;5.28;;;;;;;12.25;66.87;94168.13;4907750;28;20040;-73
2023/05/09 03:38:23;;;;;;;5.97;5.38;;;;;;;11.65;69.10;94151.28;4908907;29;20039;-74
2023/05/09 03:40:52;;;;;;;7.55;5.65;;;;;;;11.24;71.24;94171.06;4905274;28;20614;-73
2023/05/09 03:43:18;;;;;;;11.30;5.70;;;;;;;10.54;71.52;94078.72;4908030;28;20050;-74
2023/05/09 03:45:44;;;;;;;7.38;5.50;;;;;;;10.46;74.45;94163.78;4908805;28;20406;-74
2023/05/09 03:48:10;;;;;;;6.38;5.78;;;;;;;10.40;75.08;94175.63;4905481;28;20040;-74
2023/05/09 03:50:35;;;;;;;8.63;6.70;;;;;;;10.27;76.18;94175.34;4907455;28;20024;-74
2023/05/09 03:53:01;;;;;;;9.65;6.05;;;;;;;10.56;75.74;94190.88;4907656;29;20630;-74
2023/05/09 03:55:26;;;;;;;10.38;7.78;;;;;;;10.20;76.57;94169.66;4907467;28;20672;-74
2023/05/09 03:57:52;;;;;;;7.22;6.53;;;;;;;10.29;76.58;94186.47;4907754;29;20056;-74
2023/05/09 04:00:18;;;;;;;9.82;6.72;;;;;;;10.13;77.72;94192.41;4906115;29;20044;-74
2023/05/09 04:02:44;;;;;;;8.75;7.32;;;;;;;10.15;77.77;94187.59;4912428;28;20848;-75
2023/05/09 04:05:09;;;;;;;8.75;7.60;;;;;;;9.77;77.83;94141.97;4925850;28;20129;-74
2023/05/09 04:07:35;;;;;;;9.27;7.95;;;;;;;10.23;77.89;94177.03;4927479;28;20473;-73
2023/05/09 04:10:00;;;;;;;9.57;6.75;;;;;;;10.69;76.30;94195.38;4925268;28;20043;-73
2023/05/09 04:12:25;;;;;;;8.32;6.40;;;;;;;11.18;73.91;94181.06;4940703;28;20576;-75
2023/05/09 04:14:51;;;;;;;10.45;5.80;;;;;;;11.20;73.25;94175.41;4921793;28;20092;-74
2023/05/09 04:17:17;;;;;;;7.28;6.35;;;;;;;11.40;72.67;94187.38;4908486;28;20040;-73
2023/05/09 04:19:42;;;;;;;8.68;6.20;;;;;;;11.51;72.58;94192.16;4907316;28;20068;-74
2023/05/09 04:22:07;;;;;;;7.28;5.72;;;;;;;11.45;71.06;94173.94;4907648;28;20632;-74
2023/05/09 04:24:33;;;;;;;6.60;5.40;;;;;;;11.04;73.05;94185.69;4905760;28;20519;-74
2023/05/09 04:26:58;;;;;;;6.53;5.43;;;;;;;11.40;71.92;94192.72;4907914;29;20296;-73
2023/05/09 04:29:25;;;;;;;6.43;5.47;;;;;;;11.27;72.27;94173.09;4923364;28;20024;-75
2023/05/09 04:31:50;;;;;;;8.45;5.72;;;;;;;11.71;70.75;94171.34;4942165;28;20027;-74
2023/05/09 04:34:16;;;;;;;7.65;4.60;;;;;;;11.89;69.76;94179.06;4911653;28;20032;-74
2023/05/09 04:36:41;;;;;;;8.95;4.90;;;;;;;11.38;69.63;94185.03;4907122;28;20048;-75
2023/05/09 04:39:09;;;;;;;5.15;4.32;;;;;;;10.94;70.49;94170.00;4908929;28;20043;-74
2023/05/09 04:41:35;;;;;;;6.63;5.00;;;;;;;10.96;71.08;94169.66;4926550;28;20032;-75
2023/05/09 04:44:02;;;;;;;4.65;3.97;;;;;;;10.86;71.91;94193.88;4911825;29;20447;-75
2023/05/09 04:46:27;;;;;;;6.47;5.15;;;;;;;10.51;73.23;94192.91;4921633;28;20043;-74
2023/05/09 04:48:52;;;;;;;6.00;4.57;;;;;;;10.73;72.81;94200.84;4930173;28;20039;-73
2023/05/09 04:51:18;;;;;;;6.45;4.75;;;;;;;10.56;72.58;94184.81;4927989;28;20506;-74
2023/05/09 04:53:44;;;;;;;7.65;4.82;;;;;;;10.33;73.39;94176.78;4928509;28;20168;-73
2023/05/09 04:56:09;;;;;;;7.18;5.63;;;;;;;10.40;74.53;94187.03;4930602;28;20034;-74
2023/05/09 04:58:37;;;;;;;7.28;5.38;;;;;;;10.69;73.58;94190.06;4923546;28;20663;-74
2023/05/09 05:01:04;;;;;;;9.75;6.72;;;;;;;10.68;73.62;94198.31;4931695;28;20074;-75
2023/05/09 05:03:30;;;;;;;5.28;4.65;;;;;;;10.72;72.52;94189.44;4928164;28;20035;-75
2023/05/09 05:05:55;;;;;;;7.10;5.13;;;;;;;10.68;72.95;94199.13;4926961;28;20058;-75
2023/05/09 05:08:21;;;;;;;11.00;5.13;;;;;;;10.56;72.29;94190.13;4929709;28;20325;-75
2023/05/09 05:10:47;;;;;;;6.85;5.00;;;;;;;10.45;72.37;94183.47;4925422;28;20511;-75
2023/05/09 05:13:13;;;;;;;7.78;5.20;;;;;;;10.18;73.61;94190.44;4930291;28;20051;-74
2023/05/09 05:15:38;;;;;;;6.40;5.25;;;;;;;9.80;74.50;94167.91;4927281;28;20046;-73
2023/05/09 05:18:04;;;;;;;6.43;5.82;;;;;;;10.41;73.94;94193.94;4925321;28;20039;-73
2023/05/09 05:20:29;;;;;;;7.80;5.60;;;;;;;10.38;73.92;94185.75;4928886;28;20440;-73
2023/05/09 05:22:54;;;;;;;7.32;6.50;;;;;;;10.39;73.80;94195.31;4927311;28;20031;-73
2023/05/09 05:25:21;;;;;;;7.15;5.90;;;;;;;9.96;74.55;94160.41;4935411;28;20690;-74
2023/05/09 05:27:46;;;;;;;7.00;5.53;;;;;;;10.09;74.30;94186.13;4928071;28;20136;-75
2023/05/09 05:30:14;;;;;;;9.98;6.00;;;;;;;10.07;74.68;94186.47;4925842;28;20402;-73
2023/05/09 05:32:39;;;;;;;6.95;5.90;;;;;;;10.21;75.27;94199.69;4926574;28;20035;-74
2023/05/09 05:35:05;;;;;;;6.03;3.92;;;;;;;10.15;73.69;94204.34;4930943;28;20027;-73
2023/05/09 05:37:30;;;;;;;6.05;4.45;;;;;;;10.11;73.99;94215.88;4926514;28;20403;-75
2023/05/09 05:39:56;;;;;;;12.25;4.75;;;;;;;9.89;74.88;94182.06;4925402;28;20498;-74
2023/05/09 05:42:21;;;;;;;4.80;3.80;;;;;;;9.99;73.88;94181.03;4923971;28;20051;-74
2023/05/09 05:44:47;;;;;;;6.45;4.47;;;;;;;10.05;74.88;94187.81;4921180;28;20403;-72
2023/05/09 05:47:12;;;;;;;7.03;4.88;;;;;;;10.28;74.55;94205.38;4927185;28;20047;-73
2023/05/09 05:49:37;;;;;;;10.02;4.72;;;;;;;10.15;74.45;94196.34;4925318;28;20043;-73
2023/05/09 05:52:03;;;;;;;4.90;3.72;;;;;;;10.22;74.88;94191.41;4925239;28;20122;-75
2023/05/09 05:54:28;;;;;;;3.95;3.53;;;;;;;10.11;74.75;94189.28;4926597;28;20608;-73
2023/05/09 05:56:54;;;;;;;5.43;3.78;;;;;;;10.41;74.48;94203.78;4925405;28;20039;-73
2023/05/09 05:59:19;;;;;;;4.00;3.60;;;;;;;10.28;74.88;94216.00;4927346;28;20441;-73
2023/05/09 06:01:45;;;;;;;3.97;3.03;;;;;;;9.86;75.58;94167.53;4928165;28;20051;-75
2023/05/09 06:04:10;;;;;;;3.40;2.97;;;;;;;10.00;76.13;94204.66;4924773;28;20051;-73
2023/05/09 06:06:36;;;;;;;3.72;3.22;;;;;;;10.33;76.02;94208.69;4927102;28;20107;-75
2023/05/09 06:09:01;;;;;;;3.60;3.13;;;;;;;10.24;76.63;94205.19;4925655;28;20039;-74
2023/05/09 06:11:26;;;;;;;4.93;3.05;;;;;;;9.91;77.27;94216.31;4927893;28;20026;-74
2023/05/09 06:13:52;;;;;;;5.97;2.97;;;;;;;10.01;77.61;94211.56;4927324;28;20074;-74
2023/05/09 06:16:17;;;;;;;2.70;2.50;;;;;;;10.55;76.42;94213.28;4927380;28;20038;-74
2023/05/09 06:18:42;;;;;;;4.85;3.60;;;;;;;11.00;74.85;94210.56;4926235;28;20051;-74
2023/05/09 06:21:08;;;;;;;3.45;2.58;;;;;;;10.92;73.77;94196.13;4925579;28;20524;-74
2023/05/09 06:23:35;;;;;;;2.70;2.15;;;;;;;10.55;74.73;94209.81;4929061;28;20038;-73
2023/05/09 06:26:04;;;;;;;2.17;1.98;;;;;;;10.32;74.63;94212.44;4928148;28;20028;-73
2023/05/09 06:28:29;;;;;;;8.73;2.38;;;;;;;10.43;74.31;94198.94;4925488;28;20134;-74
2023/05/09 06:30:55;;;;;;;4.72;2.05;;;;;;;10.19;74.54;94186.69;4926152;28;20393;-73
2023/05/09 06:33:20;;;;;;;5.57;2.28;;;;;;;10.22;75.22;94201.28;4927472;28;20043;-74
2023/05/09 06:35:46;;;;;;;1.42;1.33;;;;;;;9.96;75.22;94206.34;4923635;28;20982;-74
2023/05/09 06:38:11;;;;;;;7.85;1.90;;;;;;;9.98;74.58;94196.19;4925512;28;20094;-74
2023/05/09 06:40:36;;;;;;;2.03;1.40;;;;;;;10.10;75.40;94209.75;4933011;28;20055;-73
2023/05/09 06:43:03;;;;;;;1.70;1.60;;;;;;;10.41;74.21;94209.88;4927884;28;20126;-74
2023/05/09 06:45:29;;;;;;;5.78;1.73;;;;;;;10.16;74.52;94205.91;4926164;28;20039;-73
2023/05/09 06:47:55;;;;;;;2.47;1.50;;;;;;;10.19;74.90;94199.19;4924535;28;20035;-73
2023/05/09 06:50:20;;;;;;;3.92;1.95;;;;;;;10.57;74.68;94215.63;4926063;28;20031;-74
2023/05/09 06:52:45;;;;;;;2.25;2.05;;;;;;;10.52;72.48;94199.78;4919186;28;21012;-75
2023/05/09 06:55:11;;;;;;;4.10;1.70;;;;;;;10.61;71.96;94208.63;4923494;28;20059;-75
2023/05/09 06:57:39;;;;;;;2.67;1.25;;;;;;;10.22;72.62;94172.78;4926756;28;20035;-73
2023/05/09 07:00:05;;;;;;;2.08;1.52;;;;;;;10.60;72.17;94185.78;4932938;28;20433;-74
2023/05/09 07:02:31;;;;;;;2.30;1.70;;;;;;;10.65;72.20;94209.59;4925331;28;20031;-74
2023/05/09 07:04:56;;;;;;;1.50;1.38;;;;;;;10.17;73.55;94191.50;4926684;28;20078;-73
2023/05/09 07:07:22;;;;;;;2.75;1.27;;;;;;;10.23;73.78;94195.63;4924557;28;20066;-74
2023/05/09 07:09:47;;;;;;;3.90;2.38;;;;;;;10.51;73.75;94204.34;4920999;28;20049;-74
2023/05/09 07:12:12;;;;;;;3.67;2.25;;;;;;;10.66;72.99;94193.31;4923489;28;20515;-75
2023/05/09 07:14:40;;;;;;;4.93;1.80;;;;;;;10.73;72.57;94184.91;4924940;28;20042;-75
2023/05/09 07:17:07;;;;;;;1.70;1.60;;;;;;;10.93;71.81;94200.34;4927227;28;21533;-75
2023/05/09 07:19:33;;;;;;;2.65;1.52;;;;;;;11.21;71.06;94198.28;4924718;28;20051;-74
2023/05/09 07:21:58;;;;;;;5.68;3.38;;;;;;;11.01;70.10;94194.28;4926909;28;20570;-73
2023/05/09 07:24:23;;;;;;;6.10;3.30;;;;;;;10.69;71.81;94199.91;4925013;28;20036;-73
2023/05/09 07:26:49;;;;;;;3.28;2.85;;;;;;;10.65;71.61;94193.63;4928798;28;20039;-73
2023/05/09 07:29:14;;;;;;;3.55;1.45;;;;;;;10.42;72.83;94205.34;4923031;28;20045;-73
2023/05/09 07:31:40;;;;;;;2.03;1.50;;;;;;;10.33;73.07;94190.09;4926977;28;20051;-73
2023/05/09 07:34:05;;;;;;;2.17;1.52;;;;;;;10.62;72.59;94194.22;4925417;28;20185;-74
2023/05/09 07:36:31;;;;;;;2.88;1.30;;;;;;;11.17;71.60;94206.09;4928012;28;20571;-73
2023/05/09 07:38:57;;;;;;;1.35;1.00;;;;;;;11.17;69.84;94187.47;4923509;28;20074;-74
2023/05/09 07:41:22;;;;;;;4.93;1.40;;;;;;;11.33;69.19;94203.03;4927145;28;20138;-74
2023/05/09 07:43:48;;;;;;;1.98;1.27;;;;;;;11.43;69.36;94213.41;4926291;28;20035;-74
2023/05/09 07:46:13;;;;;;;1.80;1.42;;;;;;;10.97;69.74;94201.31;4939062;28;20505;-73
2023/05/09 07:48:39;;;;;;;1.42;1.33;;;;;;;10.74;69.41;94197.13;4927716;28;20039;-74
2023/05/09 07:51:04;;;;;;;2.33;1.42;;;;;;;10.71;69.50;94201.16;4926522;28;20103;-75
2023/05/09 07:53:29;;;;;;;4.97;1.58;;;;;;;10.84;69.73;94206.72;4925622;28;20062;-74
2023/05/09 07:55:55;;;;;;;4.90;2.38;;;;;;;10.50;68.82;94165.53;4927795;28;20100;-73
2023/05/09 07:58:20;;;;;;;2.10;1.80;;;;;;;10.47;70.14;94194.56;4923724;28;20036;-75
2023/05/09 08:00:46;;;;;;;2.88;1.40;;;;;;;10.47;71.20;94205.22;4923848;28;20527;-75
2023/05/09 08:03:11;;;;;;;1.88;1.48;;;;;;;10.57;70.58;94199.66;4926008;28;20044;-74
2023/05/09 08:05:37;;;;;;;4.82;1.83;;;;;;;10.88;70.02;94203.13;4923257;28;20290;-73
2023/05/09 08:08:02;;;;;;;2.65;2.35;;;;;;;10.73;69.48;94184.91;4925806;28;20113;-75
2023/05/09 08:10:29;;;;;;;2.72;1.92;;;;;;;10.93;70.22;94200.34;4922801;28;20390;-74
2023/05/09 08:12:55;;;;;;;2.10;1.90;;;;;;;10.97;69.35;94190.66;4922424;28;20611;-73
2023/05/09 08:15:22;;;;;;;4.75;2.10;;;;;;;10.98;69.83;94192.25;4928319;28;20047;-75
2023/05/09 08:17:47;;;;;;;4.93;3.83;;;;;;;10.84;68.24;94199.53;4921862;28;20040;-75
2023/05/09 08:20:13;;;;;;;2.38;2.17;;;;;;;10.61;68.58;94187.34;4937967;28;20066;-74
2023/05/09 08:22:39;;;;;;;4.60;1.90;;;;;;;10.64;69.30;94189.38;4929407;28;20036;-74
2023/05/09 08:25:08;;;;;;;5.10;1.77;;;;;;;10.60;67.56;94186.56;4929682;28;20077;-74
2023/05/09 08:27:35;;;;;;;4.20;1.60;;;;;;;10.71;67.82;94184.41;4925504;28;20050;-75
2023/05/09 08:30:00;;;;;;;4.72;1.85;;;;;;;11.21;67.36;94200.94;4925125;28;20055;-73
2023/05/09 08:32:26;;;;;;;2.05;1.52;;;;;;;10.95;67.10;94198.19;4928124;28;20043;-73
2023/05/09 08:34:52;;;;;;;6.25;3.95;;;;;;;10.46;68.56;94179.72;4927137;28;20039;-74
2023/05/09 08:37:17;;;;;;;5.68;1.52;;;;;;;10.40;70.07;94186.25;4927989;28;20067;-72
2023/05/09 08:39:43;;;;;;;5.38;1.70;;;;;;;10.61;70.37;94190.00;4925727;28;20146;-74
2023/05/09 08:42:08;;;;;;;5.60;3.78;;;;;;;10.72;70.62;94194.75;4925063;28;20047;-74
2023/05/09 08:44:34;;;;;;;2.13;1.52;;;;;;;10.69;68.94;94199.91;4927328;28;20166;-74
2023/05/09 08:47:02;;;;;;;2.95;1.52;;;;;;;10.71;69.51;94193.19;4931460;28;20209;-74
2023/05/09 08:49:29;;;;;;;4.50;2.42;;;;;;;10.78;70.77;94195.41;4931068;28;20047;-75
2023/05/09 08:51:55;;;;;;;3.20;1.33;;;;;;;11.11;70.14;94178.03;4926801;28;20498;-74
2023/05/09 08:54:22;;;;;;;2.97;1.38;;;;;;;11.36;68.42;94197.09;4927900;28;20036;-72
2023/05/09 08:56:48;;;;;;;1.27;1.17;;;;;;;10.78;70.07;94192.75;4926881;28;20144;-75
2023/05/09 08:59:15;;;;;;;1.52;1.30;;;;;;;10.82;70.24;94187.59;4930103;28;20043;-74
2023/05/09 09:01:42;;;;;;;1.38;1.27;;;;;;;11.33;69.47;94192.38;4926008;28;20039;-74
2023/05/09 09:04:08;;;;;;;2.03;1.48;;;;;;;11.40;67.15;94188.16;4927035;28;20585;-74
2023/05/09 09:06:34;;;;;;;1.25;1.15;;;;;;;11.01;69.08;94170.31;4942837;28;20040;-73
2023/05/09 09:09:01;;;;;;;2.83;1.05;;;;;;;10.99;69.12;94175.19;4929559;28;20035;-75
2023/05/09 09:11:29;;;;;;;2.17;1.45;;;;;;;11.13;69.25;94194.50;4926266;28;20143;-74
2023/05/09 09:13:59;;;;;;;1.52;1.40;;;;;;;11.12;68.31;94192.94;4927883;28;20031;-73
2023/05/09 09:16:27;;;;;;;1.58;1.48;;;;;;;11.38;67.18;94194.91;4940843;28;20127;-73
2023/05/09 09:18:54;;;;;;;1.55;1.20;;;;;;;11.37;67.34;94183.47;4929752;28;20044;-75
2023/05/09 09:21:21;;;;;;;2.60;1.60;;;;;;;11.54;66.26;94202.19;4928300;28;20035;-75
2023/05/09 09:23:48;;;;;;;2.25;1.60;;;;;;;10.94;68.33;94204.59;4927090;28;20059;-74
2023/05/09 09:26:13;;;;;;;1.60;1.50;;;;;;;10.67;69.00;94175.47;4921602;28;20158;-73
2023/05/09 09:28:39;;;;;;;3.00;2.38;;;;;;;10.77;70.06;94201.81;4926467;28;20146;-73
2023/05/09 09:31:30;;;;;;;2.50;2.10;;;;;;;10.89;69.87;94206.59;4927227;28;20039;-73
2023/05/09 09:34:00;;;;;;;1.65;1.40;;;;;;;10.70;69.71;94206.81;4922993;28;20177;-74
2023/05/09 09:36:27;;;;;;;1.80;1.35;;;;;;;10.42;69.92;94200.81;4928066;28;20047;-73
2023/05/09 09:38:59;;;;;;;2.20;1.65;;;;;;;10.14;71.44;94184.16;4925827;28;20907;-74
2023/05/09 09:41:35;;;;;;;2.05;1.60;;;;;;;10.78;70.28;94192.75;4927286;28;20043;-73
2023/05/09 09:44:10;;;;;;;1.63;1.45;;;;;;;10.52;69.93;94197.13;4927934;28;20039;-74
2023/05/09 09:47:02;;;;;;;1.50;1.40;;;;;;;10.53;70.70;94212.00;4925972;28;21115;-73
2023/05/09 09:49:27;;;;;;;6.63;1.90;;;;;;;10.53;70.40;94183.53;4919649;28;20495;-76
2023/05/09 09:51:54;;;;;;;2.25;1.60;;;;;;;10.50;71.28;94204.63;4941783;28;20102;-75
2023/05/09 09:54:20;;;;;;;2.55;1.95;;;;;;;10.92;71.24;94204.09;4929064;28;20126;-73
2023/05/09 09:56:48;;;;;;;4.68;2.10;;;;;;;11.26;69.13;94197.34;4926596;28;20045;-75
2023/05/09 09:59:16;;;;;;;5.40;1.67;;;;;;;10.81;69.23;94202.00;4925060;28;20039;-74
2023/05/09 10:02:03;;;;;;;2.17;2.00;;;;;;;10.57;70.65;94203.09;4941657;28;20311;-75
2023/05/09 10:04:36;;;;;;;2.55;2.13;;;;;;;10.72;70.60;94215.25;4925734;28;20168;-73
2023/05/09 10:07:09;;;;;;;3.03;1.92;;;;;;;11.23;69.87;94203.31;4930262;28;20043;-74
2023/05/09 10:09:36;;;;;;;4.22;2.28;;;;;;;10.38;71.06;94205.16;4925327;28;20047;-75
2023/05/09 10:12:06;;;;;;;3.97;2.13;;;;;;;10.24;71.69;94201.75;4946108;28;20078;-75
2023/05/09 10:14:34;;;;;;;5.95;2.28;;;;;;;10.14;72.38;94200.09;4923131;28;20476;-74
2023/05/09 10:17:02;;;;;;;4.57;3.13;;;;;;;10.37;71.59;94195.59;4929705;28;20071;-73
2023/05/09 10:19:29;;;;;;;2.78;2.13;;;;;;;10.13;73.20;94198.53;4925500;28;20039;-75
2023/05/09 10:22:16;;;;;;;6.75;1.95;;;;;;;10.64;71.34;94192.84;4926259;28;20039;-75
2023/05/09 10:25:03;;;;;;;5.13;2.28;;;;;;;11.10;70.67;94189.03;4939359;28;20040;-74
2023/05/09 10:27:31;;;;;;;4.43;2.00;;;;;;;11.25;70.40;94201.13;4921895;28;20051;-74
2023/05/09 10:30:06;;;;;;;2.72;2.20;;;;;;;11.28;70.63;94200.50;4938791;28;20891;-74
2023/05/09 10:32:48;;;;;;;2.38;2.17;;;;;;;10.62;72.85;94189.69;4942058;28;20505;-74
2023/05/09 10:35:18;;;;;;;3.97;3.00;;;;;;;10.41;73.76;94171.88;4933651;28;20097;-73
2023/05/09 10:37:44;;;;;;;3.47;2.45;;;;;;;10.20;73.59;94156.38;4930590;28;20035;-74
2023/05/09 10:40:14;;;;;;;4.20;2.53;;;;;;;10.24;74.60;94189.25;4924547;28;20731;-75
2023/05/09 10:42:43;;;;;;;2.88;2.13;;;;;;;10.31;74.28;94188.81;4923785;28;20202;-72
2023/05/09 10:45:12;;;;;;;2.65;2.45;;;;;;;10.58;73.17;94171.97;4916200;28;20043;-73
2023/05/09 10:47:40;;;;;;;3.22;2.90;;;;;;;10.88;72.18;94192.50;4928037;28;20051;-75
2023/05/09 10:50:13;;;;;;;4.03;2.60;;;;;;;10.72;72.36;94188.66;4942187;28;20054;-75
2023/05/09 10:53:04;;;;;;;4.53;2.35;;;;;;;10.59;71.77;94184.19;4925690;28;20039;-74
2023/05/09 10:55:38;;;;;;;3.17;2.88;;;;;;;10.54;72.32;94182.44;4917691;28;20046;-74
2023/05/09 10:58:27;;;;;;;14.32;3.45;;;;;;;10.67;73.44;94191.44;4926373;28;20046;-76
2023/05/09 11:00:55;;;;;;;3.92;3.30;;;;;;;10.36;73.92;94164.00;4923244;28;21048;-73
2023/05/09 11:03:22;;;;;;;5.10;3.67;;;;;;;10.14;74.53;94172.72;4929613;28;20050;-74
2023/05/09 11:05:50;;;;;;;12.77;4.03;;;;;;;10.62;74.25;94178.25;4923996;28;20054;-74
2023/05/09 11:08:22;;;;;;;5.07;3.45;;;;;;;11.06;72.86;94175.50;4925679;28;20199;-73
2023/05/09 11:10:48;;;;;;;4.00;3.60;;;;;;;10.58;72.55;94172.75;4925450;28;20067;-73
2023/05/09 11:13:18;;;;;;;4.32;3.30;;;;;;;10.74;72.41;94165.97;4923166;28;20055;-73
2023/05/09 11:16:10;;;;;;;6.82;4.10;;;;;;;10.75;73.56;94166.78;4925099;28;20043;-75
2023/05/09 11:18:50;;;;;;;7.00;4.53;;;;;;;10.88;73.65;94175.75;4923933;28;20047;-73
2023/05/09 11:21:15;;;;;;;6.10;4.47;;;;;;;10.71;74.18;94166.56;4925241;28;20054;-74
2023/05/09 11:23:41;;;;;;;7.25;4.47;;;;;;;10.89;73.30;94162.16;4926370;28;20031;-74
2023/05/09 11:26:08;;;;;;;5.10;3.58;;;;;;;11.10;70.41;94179.13;4924754;28;20042;-73
2023/05/09 11:28:35;;;;;;;6.15;3.65;;;;;;;10.72;72.34;94183.31;4927539;28;20044;-73
2023/05/09 11:31:15;;;;;;;4.35;3.83;;;;;;;10.76;73.27;94178.97;4926513;28;20820;-74
2023/05/09 11:33:43;;;;;;;6.18;4.40;;;;;;;11.14;72.50;94180.09;4926349;28;20044;-74
2023/05/09 11:36:28;;;;;;;5.65;4.00;;;;;;;11.04;72.23;94175.06;4943588;28;20079;-73